Time;durP1;ratioP1;P1;durP2;ratioP2;P2;SDS_P1;SDS_P2;PMS_P1;PMS_P2;Temp;Humidity;BMP_temperature;BMP_pressure;BME280_temperature;BME280_humidity;BME280_pressure;Samples;Min_cycle;Max_cycle;Signal;HPM_P1;HPM_P2
2023/07/20 00:00:35;;;;;;;9.35;4.50;;;;;;;17.56;100.00;101245.47;5067736;28;20102;-64
2023/07/20 00:03:16;;;;;;;10.32;5.10;;;;;;;17.40;100.00;101250.47;5071663;28;20538;-63
2023/07/20 00:05:46;;;;;;;10.93;6.13;;;;;;;17.21;100.00;101245.91;5071997;28;20052;-63
2023/07/20 00:08:15;;;;;;;12.00;6.82;;;;;;;17.06;100.00;101253.41;5071269;28;20048;-63
2023/07/20 00:10:43;;;;;;;8.35;6.03;;;;;;;17.15;100.00;101249.94;5067658;28;20048;-64
2023/07/20 00:13:13;;;;;;;12.43;6.78;;;;;;;17.09;100.00;101250.47;5070380;28;20057;-64
2023/07/20 00:15:41;;;;;;;11.57;6.00;;;;;;;17.09;100.00;101247.81;5068119;28;20094;-64
2023/07/20 00:18:12;;;;;;;9.45;5.90;;;;;;;17.08;100.00;101246.13;5068456;28;20102;-64
2023/07/20 00:20:40;;;;;;;9.60;5.88;;;;;;;16.99;100.00;101247.78;5069267;28;20427;-64
2023/07/20 00:23:10;;;;;;;9.38;5.55;;;;;;;16.89;100.00;101247.72;5071895;28;20376;-64
2023/07/20 00:25:38;;;;;;;11.05;5.70;;;;;;;16.86;100.00;101249.75;5069508;28;20055;-63
2023/07/20 00:28:06;;;;;;;9.13;5.82;;;;;;;16.83;100.00;101248.19;5068404;28;20495;-64
2023/07/20 00:30:35;;;;;;;10.70;5.18;;;;;;;16.79;100.00;101252.09;5070510;28;20457;-63
2023/07/20 00:33:03;;;;;;;9.32;5.60;;;;;;;16.76;100.00;101252.38;5071647;28;20051;-64
2023/07/20 00:35:31;;;;;;;9.98;5.45;;;;;;;16.81;100.00;101247.50;5071580;28;20048;-63
2023/07/20 00:37:59;;;;;;;9.00;5.40;;;;;;;16.73;100.00;101242.00;5069769;28;20040;-63
2023/07/20 00:40:29;;;;;;;8.32;5.13;;;;;;;16.71;100.00;101238.63;5067824;28;20822;-64
2023/07/20 00:42:57;;;;;;;11.65;5.40;;;;;;;16.67;100.00;101237.19;5070869;28;20072;-63
2023/07/20 00:45:28;;;;;;;10.55;4.90;;;;;;;16.70;100.00;101242.25;5071363;28;20037;-64
2023/07/20 00:47:57;;;;;;;8.40;4.80;;;;;;;16.71;100.00;101243.94;5071297;28;20080;-63
2023/07/20 00:50:28;;;;;;;9.98;5.38;;;;;;;16.61;100.00;101251.00;5069794;28;20055;-63
2023/07/20 00:52:57;;;;;;;8.25;5.05;;;;;;;16.54;100.00;101253.34;5067896;28;20052;-61
2023/07/20 00:55:26;;;;;;;7.53;4.97;;;;;;;16.48;100.00;101248.53;5070241;28;20055;-64
2023/07/20 00:57:55;;;;;;;8.20;5.43;;;;;;;16.49;100.00;101242.25;5070933;28;20052;-63
2023/07/20 01:00:23;;;;;;;9.43;5.25;;;;;;;16.45;100.00;101246.16;5066087;28;20058;-63
2023/07/20 01:02:52;;;;;;;7.35;4.18;;;;;;;16.46;100.00;101247.84;5068662;28;20127;-63
2023/07/20 01:05:22;;;;;;;7.55;4.82;;;;;;;16.36;100.00;101242.44;5068985;28;20048;-64
2023/07/20 01:07:56;;;;;;;8.48;4.70;;;;;;;16.44;100.00;101237.31;5067725;28;20527;-64
2023/07/20 01:10:30;;;;;;;9.57;4.88;;;;;;;16.44;100.00;101234.66;5067520;28;20102;-63
2023/07/20 01:13:01;;;;;;;11.07;5.40;;;;;;;16.38;100.00;101243.16;5067885;28;20145;-63
2023/07/20 01:15:29;;;;;;;8.23;4.95;;;;;;;16.41;100.00;101242.91;5048321;28;20512;-64
2023/07/20 01:17:57;;;;;;;8.15;4.70;;;;;;;16.45;100.00;101241.66;5067571;28;20051;-64
2023/07/20 01:20:26;;;;;;;10.20;5.10;;;;;;;16.46;100.00;101245.19;5070354;28;20052;-56
2023/07/20 01:23:23;;;;;;;9.57;4.63;;;;;;;16.46;100.00;101258.44;5070584;28;20090;-56
2023/07/20 01:26:12;;;;;;;9.13;5.20;;;;;;;16.45;100.00;101248.81;5067559;28;20068;-57
2023/07/20 01:29:17;;;;;;;10.32;4.80;;;;;;;16.52;100.00;101250.81;5070073;28;20052;-65
2023/07/20 01:31:49;;;;;;;7.82;4.40;;;;;;;16.48;100.00;101262.63;5056826;28;20151;-64
2023/07/20 01:34:23;;;;;;;8.48;5.03;;;;;;;16.42;100.00;101263.16;5074901;28;20094;-64
2023/07/20 01:36:53;;;;;;;7.63;4.75;;;;;;;16.43;100.00;101256.91;5072266;28;20037;-64
2023/07/20 01:39:22;;;;;;;7.43;4.80;;;;;;;16.44;100.00;101263.03;5071739;28;20049;-64
2023/07/20 01:41:50;;;;;;;10.40;5.07;;;;;;;16.44;100.00;101260.38;5071258;28;20048;-64
2023/07/20 01:44:19;;;;;;;8.30;4.63;;;;;;;16.42;100.00;101262.34;5070205;28;20115;-64
2023/07/20 01:46:48;;;;;;;9.75;5.20;;;;;;;16.37;100.00;101271.53;5071198;28;20422;-64
2023/07/20 01:49:17;;;;;;;10.98;4.60;;;;;;;16.38;100.00;101265.22;5071343;28;20056;-57
2023/07/20 01:51:45;;;;;;;8.10;4.90;;;;;;;16.42;100.00;101255.22;5070777;28;20521;-58
2023/07/20 01:54:16;;;;;;;8.80;5.05;;;;;;;16.43;100.00;101258.69;5070908;28;20109;-58
2023/07/20 01:56:44;;;;;;;9.82;4.60;;;;;;;16.47;100.00;101260.13;5070664;28;20091;-56
2023/07/20 01:59:12;;;;;;;8.00;4.30;;;;;;;16.39;100.00;101261.59;5070203;28;20049;-64
2023/07/20 02:01:41;;;;;;;8.38;3.97;;;;;;;16.42;100.00;101259.69;5072727;28;20056;-57
2023/07/20 02:04:13;;;;;;;7.35;4.07;;;;;;;16.31;100.00;101261.41;5071811;28;20044;-57
2023/07/20 02:06:41;;;;;;;7.40;4.00;;;;;;;16.28;100.00;101264.31;5070583;28;20067;-57
2023/07/20 02:09:09;;;;;;;7.47;3.83;;;;;;;16.28;100.00;101260.81;5070848;28;20490;-64
2023/07/20 02:11:37;;;;;;;6.18;3.25;;;;;;;16.24;100.00;101260.25;5070876;28;20044;-64
2023/07/20 02:14:06;;;;;;;7.18;3.30;;;;;;;16.14;100.00;101261.94;5069502;28;20044;-64
2023/07/20 02:16:34;;;;;;;5.32;3.25;;;;;;;16.12;100.00;101264.72;5070398;28;20044;-58
2023/07/20 02:19:03;;;;;;;7.45;3.40;;;;;;;16.09;100.00;101272.09;5070742;28;20076;-58
2023/07/20 02:21:33;;;;;;;6.13;2.70;;;;;;;16.02;100.00;101269.97;5071035;28;20048;-57
2023/07/20 02:24:01;;;;;;;5.68;2.65;;;;;;;15.95;100.00;101270.56;5074163;28;20531;-57
2023/07/20 02:26:29;;;;;;;5.90;2.75;;;;;;;15.94;100.00;101261.78;5072183;28;20041;-57
2023/07/20 02:28:58;;;;;;;5.85;2.47;;;;;;;15.98;100.00;101273.81;5068786;28;20543;-58
2023/07/20 02:31:26;;;;;;;4.82;2.50;;;;;;;15.97;100.00;101266.81;5069716;28;20055;-57
2023/07/20 02:33:54;;;;;;;4.53;2.20;;;;;;;15.95;100.00;101265.25;5069829;28;20086;-58
2023/07/20 02:36:25;;;;;;;4.20;2.10;;;;;;;15.93;100.00;101270.69;5069499;28;20040;-57
2023/07/20 02:38:55;;;;;;;4.22;2.28;;;;;;;15.92;100.00;101263.69;5070761;28;20044;-58
2023/07/20 02:41:25;;;;;;;5.28;2.05;;;;;;;15.90;100.00;101263.00;5071089;28;20055;-57
2023/07/20 02:43:53;;;;;;;3.33;2.00;;;;;;;15.91;100.00;101270.00;5069231;28;20130;-58
2023/07/20 02:46:21;;;;;;;5.15;2.20;;;;;;;15.88;100.00;101267.56;5073026;28;20051;-57
2023/07/20 02:48:50;;;;;;;2.78;1.90;;;;;;;15.78;100.00;101270.09;5070050;28;20049;-58
2023/07/20 02:51:18;;;;;;;3.40;1.60;;;;;;;15.70;100.00;101276.00;5070332;28;20045;-58
2023/07/20 02:53:46;;;;;;;3.70;2.05;;;;;;;15.65;100.00;101277.34;5069910;28;20040;-57
2023/07/20 02:56:17;;;;;;;5.05;2.08;;;;;;;15.67;100.00;101278.91;5071890;28;20044;-57
2023/07/20 02:58:46;;;;;;;3.58;1.95;;;;;;;15.63;100.00;101280.13;5068639;28;20098;-58
2023/07/20 03:01:15;;;;;;;3.75;1.80;;;;;;;15.69;100.00;101290.25;5069998;28;20048;-58
2023/07/20 03:03:46;;;;;;;3.35;1.73;;;;;;;15.58;100.00;101287.59;5069491;28;20127;-58
2023/07/20 03:06:15;;;;;;;3.25;2.28;;;;;;;15.46;100.00;101292.06;5069909;28;20103;-58
2023/07/20 03:08:47;;;;;;;5.20;2.13;;;;;;;15.42;100.00;101295.06;5072128;28;20040;-58
2023/07/20 03:11:17;;;;;;;4.28;2.08;;;;;;;15.37;100.00;101298.91;5069537;28;20129;-58
2023/07/20 03:13:45;;;;;;;4.28;2.15;;;;;;;15.37;100.00;101290.97;5069878;28;20398;-58
2023/07/20 03:16:18;;;;;;;4.32;2.20;;;;;;;15.40;100.00;101302.31;5073273;28;20045;-58
2023/07/20 03:18:47;;;;;;;5.30;2.80;;;;;;;15.38;100.00;101313.03;5073417;28;20049;-58
2023/07/20 03:21:15;;;;;;;4.38;2.20;;;;;;;15.34;100.00;101301.81;5052389;28;20159;-58
2023/07/20 03:23:44;;;;;;;3.65;2.30;;;;;;;15.26;100.00;101309.53;5069193;28;20048;-56
2023/07/20 03:26:12;;;;;;;5.80;2.60;;;;;;;15.33;100.00;101312.53;5072991;28;20099;-64
2023/07/20 03:28:42;;;;;;;3.88;2.75;;;;;;;15.21;100.00;101309.03;5069860;28;20047;-64
2023/07/20 03:31:10;;;;;;;4.72;2.22;;;;;;;15.04;100.00;101305.88;5069188;28;20045;-58
2023/07/20 03:33:38;;;;;;;4.50;2.30;;;;;;;14.94;100.00;101301.41;5068843;28;20132;-56
2023/07/20 03:36:07;;;;;;;4.93;2.22;;;;;;;14.89;100.00;101315.00;5068972;28;20052;-56
2023/07/20 03:38:35;;;;;;;5.82;2.50;;;;;;;14.85;100.00;101306.44;5071486;28;20059;-56
2023/07/20 03:41:04;;;;;;;4.70;2.53;;;;;;;14.90;100.00;101311.38;5069338;28;20384;-56
2023/07/20 03:43:35;;;;;;;4.05;1.88;;;;;;;14.90;100.00;101315.84;5070860;28;20098;-57
2023/07/20 03:46:06;;;;;;;4.00;2.10;;;;;;;14.88;100.00;101308.84;5072469;28;20088;-56
2023/07/20 03:48:35;;;;;;;4.60;2.03;;;;;;;14.82;100.00;101311.13;5072046;28;20040;-57
2023/07/20 03:51:04;;;;;;;3.67;2.00;;;;;;;14.86;100.00;101308.13;5068800;28;21040;-56
2023/07/20 03:53:32;;;;;;;3.72;1.85;;;;;;;14.79;100.00;101311.34;5069253;28;20048;-56
2023/07/20 03:56:00;;;;;;;3.00;1.60;;;;;;;14.79;100.00;101306.06;5053751;28;20040;-55
2023/07/20 03:58:29;;;;;;;3.13;1.80;;;;;;;14.69;100.00;101316.50;5072019;28;20088;-56
2023/07/20 04:00:58;;;;;;;3.45;1.70;;;;;;;14.72;100.00;101312.78;5072000;28;20530;-63
2023/07/20 04:03:28;;;;;;;3.25;1.70;;;;;;;14.70;100.00;101313.75;5071774;28;20036;-56
2023/07/20 04:05:59;;;;;;;2.50;1.58;;;;;;;14.66;100.00;101317.56;5071643;28;20040;-56
2023/07/20 04:08:27;;;;;;;4.10;1.80;;;;;;;14.74;100.00;101316.16;5070462;28;20537;-57
2023/07/20 04:10:55;;;;;;;2.28;1.80;;;;;;;14.69;100.00;101322.63;5067783;28;20044;-63
2023/07/20 04:13:23;;;;;;;2.33;1.63;;;;;;;14.65;100.00;101317.69;5071157;28;20076;-63
2023/07/20 04:15:52;;;;;;;2.08;1.60;;;;;;;14.65;100.00;101323.81;5071436;28;20438;-56
2023/07/20 04:18:20;;;;;;;2.05;1.55;;;;;;;14.65;100.00;101326.47;5052649;28;20052;-63
2023/07/20 04:20:49;;;;;;;3.05;1.50;;;;;;;14.64;100.00;101321.28;5068346;28;20131;-62
2023/07/20 04:23:17;;;;;;;2.65;1.80;;;;;;;14.63;100.00;101323.09;5069875;28;20063;-62
2023/07/20 04:25:46;;;;;;;4.07;2.22;;;;;;;14.61;100.00;101324.16;5069022;28;20447;-62
2023/07/20 04:28:14;;;;;;;3.80;2.10;;;;;;;14.61;100.00;101317.03;5068166;28;20109;-63
2023/07/20 04:30:43;;;;;;;3.47;1.90;;;;;;;14.63;100.00;101328.41;5071687;28;20067;-63
2023/07/20 04:33:11;;;;;;;4.70;2.10;;;;;;;14.61;100.00;101326.78;5071603;28;20099;-64
2023/07/20 04:35:47;;;;;;;4.00;1.90;;;;;;;14.65;100.00;101331.75;5069888;28;20118;-62
2023/07/20 04:38:18;;;;;;;3.50;1.73;;;;;;;14.63;100.00;101328.41;5067835;28;20032;-63
2023/07/20 04:40:46;;;;;;;5.03;2.10;;;;;;;14.64;100.00;101331.88;5067524;28;20068;-58
2023/07/20 04:43:15;;;;;;;3.42;2.08;;;;;;;14.53;100.00;101336.16;5068103;28;20052;-57
2023/07/20 04:45:43;;;;;;;3.40;2.08;;;;;;;14.52;100.00;101338.91;5071237;28;20050;-62
2023/07/20 04:48:13;;;;;;;3.53;1.92;;;;;;;14.44;100.00;101341.25;5071434;28;20037;-57
2023/07/20 04:50:41;;;;;;;3.28;1.90;;;;;;;14.44;100.00;101343.91;5071406;28;20048;-63
2023/07/20 04:53:10;;;;;;;5.22;2.00;;;;;;;14.37;100.00;101347.03;5068732;28;20044;-63
2023/07/20 04:55:41;;;;;;;2.63;1.75;;;;;;;14.46;100.00;101342.00;5049422;28;20057;-63
2023/07/20 04:58:09;;;;;;;4.65;2.05;;;;;;;14.41;100.00;101349.44;5067371;28;20064;-64
2023/07/20 05:00:39;;;;;;;3.85;1.83;;;;;;;14.43;100.00;101343.06;5066029;28;20407;-62
2023/07/20 05:03:07;;;;;;;2.45;1.60;;;;;;;14.48;100.00;101348.00;5067511;28;20048;-63
2023/07/20 05:05:35;;;;;;;2.78;1.83;;;;;;;14.51;100.00;101343.34;5049382;28;20048;-63
2023/07/20 05:08:05;;;;;;;3.85;1.42;;;;;;;14.58;100.00;101343.75;5067589;28;20064;-63
2023/07/20 05:10:33;;;;;;;3.17;1.40;;;;;;;14.66;100.00;101343.22;5067915;28;20054;-63
2023/07/20 05:13:03;;;;;;;3.15;1.67;;;;;;;14.76;100.00;101348.66;5071515;28;20055;-64
2023/07/20 05:15:33;;;;;;;3.17;1.90;;;;;;;14.81;100.00;101344.69;5051089;28;20441;-64
2023/07/20 05:18:02;;;;;;;2.63;1.50;;;;;;;14.84;100.00;101349.75;5067562;28;20132;-63
2023/07/20 05:20:31;;;;;;;3.78;1.70;;;;;;;14.97;100.00;101346.19;5070223;28;20123;-63
2023/07/20 05:23:00;;;;;;;3.70;2.00;;;;;;;15.03;100.00;101349.22;5067401;28;20076;-64
2023/07/20 05:25:29;;;;;;;2.78;1.63;;;;;;;15.11;100.00;101355.75;5067398;28;20383;-63
2023/07/20 05:27:58;;;;;;;3.70;1.70;;;;;;;15.18;100.00;101349.84;5049774;28;20051;-63
2023/07/20 05:30:29;;;;;;;4.03;1.48;;;;;;;15.19;100.00;101346.25;5050279;28;20144;-63
2023/07/20 05:32:57;;;;;;;3.33;1.40;;;;;;;15.33;100.00;101355.78;5067438;28;20402;-57
2023/07/20 05:35:27;;;;;;;3.08;1.55;;;;;;;15.36;100.00;101360.81;5068224;28;20609;-63
2023/07/20 05:37:55;;;;;;;2.72;1.40;;;;;;;15.42;100.00;101363.97;5069498;28;20041;-63
2023/07/20 05:40:23;;;;;;;3.22;1.30;;;;;;;15.46;100.00;101368.94;5066732;28;20388;-63
2023/07/20 05:42:53;;;;;;;2.70;1.30;;;;;;;15.64;100.00;101371.94;5049638;28;20087;-63
2023/07/20 05:45:21;;;;;;;2.90;1.20;;;;;;;15.85;100.00;101365.94;5065959;28;20131;-63
2023/07/20 05:47:51;;;;;;;1.67;1.00;;;;;;;15.98;100.00;101374.63;5070689;28;20045;-63
2023/07/20 05:50:19;;;;;;;3.20;1.30;;;;;;;16.00;100.00;101372.69;5067541;28;20040;-62
2023/07/20 05:52:48;;;;;;;3.00;1.23;;;;;;;16.04;100.00;101379.41;5067097;28;20072;-57
2023/07/20 05:55:16;;;;;;;2.65;1.17;;;;;;;16.09;100.00;101376.41;5067027;28;20040;-57
2023/07/20 05:57:45;;;;;;;2.42;1.20;;;;;;;16.22;100.00;101373.59;5066819;28;20050;-57
2023/07/20 06:00:13;;;;;;;2.13;1.05;;;;;;;16.31;100.00;101372.88;5066059;28;20136;-57
2023/07/20 06:02:42;;;;;;;1.98;1.10;;;;;;;16.38;100.00;101371.41;5067131;28;20044;-57
2023/07/20 06:05:12;;;;;;;2.03;1.00;;;;;;;16.53;100.00;101376.44;5052419;28;20040;-64
2023/07/20 06:07:40;;;;;;;2.72;1.10;;;;;;;16.58;100.00;101378.69;5070380;28;20045;-64
2023/07/20 06:10:09;;;;;;;3.20;1.08;;;;;;;16.70;100.00;101386.50;5067296;28;20040;-64
2023/07/20 06:12:37;;;;;;;3.78;1.27;;;;;;;16.80;100.00;101389.25;5066033;28;20110;-64
2023/07/20 06:15:06;;;;;;;2.75;1.00;;;;;;;16.89;100.00;101387.66;5069281;28;20052;-64
2023/07/20 06:17:35;;;;;;;3.80;1.10;;;;;;;16.99;100.00;101396.56;5069344;28;20106;-65
2023/07/20 06:20:08;;;;;;;5.15;1.10;;;;;;;17.08;100.00;101392.25;5070737;28;20106;-64
2023/07/20 06:22:37;;;;;;;2.42;1.00;;;;;;;17.17;100.00;101391.50;5069656;28;20060;-64
2023/07/20 06:25:06;;;;;;;3.72;0.98;;;;;;;17.27;100.00;101401.34;5069959;28;20078;-57
2023/07/20 06:27:34;;;;;;;3.40;0.90;;;;;;;17.35;100.00;101390.91;5071355;28;20068;-57
2023/07/20 06:30:03;;;;;;;1.88;0.88;;;;;;;17.37;100.00;101388.97;5072486;28;20043;-57
2023/07/20 06:32:32;;;;;;;4.20;1.05;;;;;;;17.46;100.00;101390.81;5069579;28;20044;-56
2023/07/20 06:35:00;;;;;;;2.78;0.90;;;;;;;17.56;100.00;101393.53;5072780;28;20511;-57
2023/07/20 06:37:28;;;;;;;2.55;0.82;;;;;;;17.68;100.00;101392.50;5070381;28;20040;-56
2023/07/20 06:39:58;;;;;;;2.35;1.08;;;;;;;17.82;100.00;101393.06;5069760;28;20055;-56
2023/07/20 06:42:29;;;;;;;2.85;0.95;;;;;;;17.88;100.00;101396.06;5072757;28;20048;-57
2023/07/20 06:45:17;;;;;;;2.88;0.80;;;;;;;17.93;100.00;101400.16;5069042;28;20055;-57
2023/07/20 06:47:46;;;;;;;2.88;1.10;;;;;;;18.07;100.00;101402.47;5069481;28;20496;-57
2023/07/20 06:50:14;;;;;;;2.25;0.75;;;;;;;18.17;100.00;101397.16;5070116;28;20056;-65
2023/07/20 06:52:47;;;;;;;1.65;0.85;;;;;;;18.29;100.00;101397.88;5069832;28;20044;-64
2023/07/20 06:55:17;;;;;;;3.63;1.20;;;;;;;18.42;100.00;101395.81;5071391;28;20106;-65
2023/07/20 06:57:48;;;;;;;2.47;0.70;;;;;;;18.60;100.00;101406.63;5072976;28;20136;-65
2023/07/20 07:00:17;;;;;;;3.30;0.90;;;;;;;18.77;100.00;101402.41;5073219;28;20052;-65
2023/07/20 07:02:45;;;;;;;1.35;0.80;;;;;;;18.94;100.00;101405.38;5072648;28;20050;-64
2023/07/20 07:05:21;;;;;;;3.22;0.82;;;;;;;19.07;100.00;101404.13;5069398;28;20060;-63
2023/07/20 07:07:49;;;;;;;2.85;0.70;;;;;;;19.15;100.00;101400.72;5069314;28;20072;-63
2023/07/20 07:10:19;;;;;;;1.92;0.75;;;;;;;19.35;100.00;101408.72;5069316;28;20040;-63
2023/07/20 07:12:47;;;;;;;4.45;1.00;;;;;;;19.34;100.00;101417.69;5069279;28;20045;-65
2023/07/20 07:15:16;;;;;;;4.05;0.60;;;;;;;19.21;100.00;101415.31;5068899;28;20045;-64
2023/07/20 07:17:44;;;;;;;2.33;0.70;;;;;;;19.15;100.00;101421.22;5070478;28;20415;-64
2023/07/20 07:20:13;;;;;;;1.27;0.80;;;;;;;19.23;100.00;101418.69;5073201;28;20048;-57
2023/07/20 07:22:48;;;;;;;4.15;0.80;;;;;;;19.19;100.00;101417.28;5073090;28;20048;-65
2023/07/20 07:25:19;;;;;;;1.48;0.80;;;;;;;19.33;100.00;101416.84;5072623;28;20090;-57
2023/07/20 07:27:52;;;;;;;1.13;0.65;;;;;;;19.52;100.00;101420.44;5069925;28;20049;-65
2023/07/20 07:30:20;;;;;;;2.33;0.80;;;;;;;19.62;100.00;101426.59;5068325;28;20428;-65
2023/07/20 07:32:49;;;;;;;0.85;0.68;;;;;;;19.87;100.00;101413.63;5069009;28;20090;-65
2023/07/20 07:35:17;;;;;;;3.60;0.85;;;;;;;20.05;100.00;101406.50;5069711;28;20055;-57
2023/07/20 07:37:46;;;;;;;1.55;0.75;;;;;;;20.22;100.00;101415.56;5069265;28;20051;-56
2023/07/20 07:40:36;;;;;;;2.10;0.90;;;;;;;20.43;100.00;101415.25;5068839;28;20048;-57
2023/07/20 07:43:04;;;;;;;1.30;0.70;;;;;;;20.61;100.00;101422.47;5070684;28;20555;-56
2023/07/20 07:45:36;;;;;;;4.20;0.80;;;;;;;20.84;100.00;101419.38;5069651;28;20490;-57
2023/07/20 07:48:05;;;;;;;3.58;0.70;;;;;;;20.75;100.00;101423.78;5069185;28;20491;-57
2023/07/20 07:50:33;;;;;;;1.58;0.73;;;;;;;20.90;100.00;101427.63;5071713;28;20809;-65
2023/07/20 07:53:01;;;;;;;3.15;1.05;;;;;;;21.08;100.00;101421.41;5069273;28;20044;-65
2023/07/20 07:55:30;;;;;;;2.30;0.95;;;;;;;21.20;100.00;101427.34;5068457;28;20059;-65
2023/07/20 07:57:59;;;;;;;0.93;0.40;;;;;;;21.01;100.00;101423.00;5070361;28;20048;-64
2023/07/20 08:00:27;;;;;;;1.33;0.50;;;;;;;21.26;100.00;101424.88;5072394;28;20058;-64
2023/07/20 08:02:56;;;;;;;3.90;0.80;;;;;;;21.20;100.00;101438.03;5072131;28;20041;-64
2023/07/20 08:05:24;;;;;;;1.25;0.50;;;;;;;21.23;100.00;101433.22;5072086;28;20044;-64
2023/07/20 08:07:52;;;;;;;1.50;0.60;;;;;;;21.15;100.00;101429.66;5072360;28;20056;-64
2023/07/20 08:10:20;;;;;;;1.02;0.50;;;;;;;20.79;100.00;101435.03;5069751;28;20060;-65
2023/07/20 08:12:49;;;;;;;0.85;0.60;;;;;;;21.08;100.00;101424.91;5068579;28;20044;-64
2023/07/20 08:15:18;;;;;;;0.77;0.50;;;;;;;21.04;100.00;101422.72;5067383;28;20533;-64
2023/07/20 08:17:48;;;;;;;0.90;0.57;;;;;;;21.25;100.00;101431.22;5067397;28;20518;-64
2023/07/20 08:20:18;;;;;;;0.95;0.68;;;;;;;21.54;100.00;101429.28;5068518;28;20049;-65
2023/07/20 08:22:46;;;;;;;1.40;0.75;;;;;;;21.78;100.00;101429.41;5067866;28;20040;-64
2023/07/20 08:25:15;;;;;;;1.63;0.60;;;;;;;21.92;100.00;101427.13;5069879;28;20098;-64
2023/07/20 08:27:46;;;;;;;1.08;0.50;;;;;;;22.10;100.00;101429.69;5071873;28;20048;-64
2023/07/20 08:30:14;;;;;;;2.22;0.60;;;;;;;22.32;100.00;101424.75;5071268;28;20051;-63
2023/07/20 08:32:44;;;;;;;1.33;0.60;;;;;;;22.39;100.00;101423.16;5049092;28;20507;-64
2023/07/20 08:35:12;;;;;;;2.45;0.65;;;;;;;22.55;90.38;101428.53;5068392;28;20052;-55
2023/07/20 08:37:43;;;;;;;2.38;0.68;;;;;;;22.95;89.73;101420.69;5067108;28;20557;-64
2023/07/20 08:40:13;;;;;;;3.25;0.82;;;;;;;23.11;84.76;101428.72;5067923;28;20047;-63
2023/07/20 08:42:42;;;;;;;3.03;0.73;;;;;;;23.11;87.26;101420.69;5067698;28;20052;-63
2023/07/20 08:45:13;;;;;;;1.77;0.77;;;;;;;23.43;84.43;101428.91;5067433;28;20048;-63
2023/07/20 08:47:46;;;;;;;1.40;0.63;;;;;;;23.51;82.01;101428.88;5071445;28;20136;-63
2023/07/20 08:50:14;;;;;;;;;;;;;;;23.69;83.78;101427.81;5072151;28;20044;-63
2023/07/20 08:52:42;;;;;;;1.77;0.73;;;;;;;23.66;79.73;101428.19;5071706;28;20302;-64
2023/07/20 08:55:13;;;;;;;0.63;0.57;;;;;;;23.83;81.78;101428.94;5071492;28;20585;-64
2023/07/20 08:57:43;;;;;;;1.80;0.57;;;;;;;23.44;78.89;101434.09;5071324;28;20049;-64
2023/07/20 09:00:14;;;;;;;3.40;0.73;;;;;;;23.41;80.00;101434.44;5071330;28;20158;-64
2023/07/20 09:02:46;;;;;;;1.00;0.55;;;;;;;23.34;78.98;101430.75;5068900;28;20044;-64
2023/07/20 09:05:14;;;;;;;3.08;0.80;;;;;;;23.31;76.90;101433.78;5068050;28;20051;-64
2023/07/20 09:07:42;;;;;;;2.03;0.85;;;;;;;23.31;78.27;101433.78;5070841;28;20044;-64
2023/07/20 09:10:12;;;;;;;0.55;0.50;;;;;;;23.22;70.13;101429.41;5071474;28;20040;-56
2023/07/20 09:12:42;;;;;;;1.65;0.60;;;;;;;23.15;73.04;101426.59;5071391;28;20049;-57
2023/07/20 09:15:12;;;;;;;1.35;0.77;;;;;;;23.17;73.59;101418.38;5071068;28;20040;-56
2023/07/20 09:17:40;;;;;;;1.23;0.60;;;;;;;23.49;68.77;101419.31;5068226;28;20127;-56
2023/07/20 09:20:11;;;;;;;0.68;0.60;;;;;;;23.56;67.06;101414.94;5068125;28;20044;-56
2023/07/20 09:22:40;;;;;;;3.08;0.68;;;;;;;23.77;70.69;101414.38;5067297;28;20080;-56
2023/07/20 09:25:11;;;;;;;2.60;0.80;;;;;;;24.16;71.54;101402.81;5067438;28;20044;-56
2023/07/20 09:27:41;;;;;;;1.30;0.43;;;;;;;24.12;61.15;101409.56;5069833;28;20119;-56
2023/07/20 09:30:13;;;;;;;1.08;0.63;;;;;;;24.53;70.13;101416.53;5071420;28;20075;-56
2023/07/20 09:32:59;;;;;;;2.08;0.60;;;;;;;24.74;66.63;101416.72;5067322;28;20048;-56
2023/07/20 09:35:30;;;;;;;3.10;0.93;;;;;;;24.46;64.42;101411.88;5068189;28;20094;-56
2023/07/20 09:38:10;;;;;;;1.63;0.70;;;;;;;24.64;63.66;101418.84;5067692;28;20598;-56
2023/07/20 09:40:41;;;;;;;0.95;0.60;;;;;;;24.85;62.28;101411.97;5066767;28;20458;-56
2023/07/20 09:43:12;;;;;;;0.68;0.60;;;;;;;24.28;59.73;101414.00;5066776;28;20462;-56
2023/07/20 09:45:44;;;;;;;1.02;0.50;;;;;;;24.20;63.72;101411.34;5068263;28;20744;-64
2023/07/20 09:48:15;;;;;;;2.38;0.50;;;;;;;24.63;64.27;101406.41;5073730;28;20037;-64
2023/07/20 09:50:51;;;;;;;2.67;0.60;;;;;;;24.68;61.67;101412.09;5074872;28;20391;-65
2023/07/20 09:53:21;;;;;;;2.50;0.73;;;;;;;24.73;63.73;101408.84;5071245;28;20051;-65
2023/07/20 09:55:49;;;;;;;3.03;0.70;;;;;;;24.76;64.23;101406.66;5071004;28;20469;-65
2023/07/20 09:58:19;;;;;;;1.35;0.50;;;;;;;24.71;64.60;101402.84;5071551;28;20057;-65
2023/07/20 10:00:50;;;;;;;1.65;0.63;;;;;;;24.27;63.36;101401.59;5072563;28;20068;-66
2023/07/20 10:03:28;;;;;;;3.33;0.80;;;;;;;24.44;62.69;101397.75;5070887;28;20155;-65
2023/07/20 10:06:11;;;;;;;2.70;0.80;;;;;;;24.86;65.77;101400.19;5071151;28;20040;-55
2023/07/20 10:08:41;;;;;;;1.75;0.60;;;;;;;25.24;62.95;101397.50;5072210;28;20048;-55
2023/07/20 10:11:16;;;;;;;2.80;0.77;;;;;;;24.47;64.10;101401.94;5074519;28;20045;-56
2023/07/20 10:13:45;;;;;;;3.47;0.70;;;;;;;24.35;64.54;101398.00;5070894;28;20118;-56
2023/07/20 10:16:23;;;;;;;0.82;0.60;;;;;;;24.33;62.28;101400.88;5070674;28;20769;-65
2023/07/20 10:19:01;;;;;;;3.67;0.80;;;;;;;24.39;63.12;101394.78;5073981;28;20052;-55
2023/07/20 10:21:31;;;;;;;1.58;0.60;;;;;;;24.23;66.45;101394.91;5054637;28;20056;-56
2023/07/20 10:24:02;;;;;;;;;;;;;;;24.30;66.22;101393.16;5071640;28;20044;-56
2023/07/20 10:26:33;;;;;;;3.40;0.80;;;;;;;24.12;69.04;101396.97;5072711;28;20410;-56
2023/07/20 10:29:05;;;;;;;1.75;0.73;;;;;;;24.19;67.91;101394.41;5074267;28;20044;-65
2023/07/20 10:31:34;;;;;;;2.05;0.70;;;;;;;24.22;66.32;101394.03;5072930;28;20044;-64
2023/07/20 10:34:04;;;;;;;3.33;1.00;;;;;;;24.15;63.75;101393.09;5071210;28;20459;-65
2023/07/20 10:36:33;;;;;;;1.33;0.70;;;;;;;24.28;68.57;101390.66;5072549;28;20049;-65
2023/07/20 10:39:02;;;;;;;1.35;0.68;;;;;;;24.13;65.26;101385.22;5074043;28;20399;-65
2023/07/20 10:41:35;;;;;;;2.42;1.05;;;;;;;24.19;64.09;101386.34;5074017;28;20052;-65
2023/07/20 10:44:04;;;;;;;1.90;0.80;;;;;;;24.30;65.21;101380.56;5073963;28;20048;-64
2023/07/20 10:46:44;;;;;;;0.80;0.65;;;;;;;24.49;66.87;101378.44;5071956;28;20506;-65
2023/07/20 10:49:15;;;;;;;1.67;0.75;;;;;;;24.36;67.89;101381.69;5070284;28;20499;-64
2023/07/20 10:51:47;;;;;;;0.77;0.70;;;;;;;24.34;70.21;101372.13;5070137;28;20053;-64
2023/07/20 10:54:51;;;;;;;2.72;0.90;;;;;;;24.68;67.07;101371.75;5070726;28;20446;-64
2023/07/20 10:57:30;;;;;;;2.22;0.70;;;;;;;25.01;66.53;101379.53;5059006;28;20643;-65
2023/07/20 11:00:11;;;;;;;2.92;0.77;;;;;;;25.08;60.46;101374.25;5028758;28;20080;-64
2023/07/20 11:02:47;;;;;;;2.40;0.90;;;;;;;24.57;62.45;101372.97;5029340;28;20057;-64
2023/07/20 11:05:37;;;;;;;2.15;0.88;;;;;;;25.10;60.37;101369.53;5030669;28;20095;-65
2023/07/20 11:08:13;;;;;;;1.67;0.70;;;;;;;25.18;62.42;101372.13;5033590;28;20052;-65
2023/07/20 11:10:41;;;;;;;2.03;1.05;;;;;;;25.41;60.24;101369.38;5029431;28;20045;-65
2023/07/20 11:13:17;;;;;;;1.80;0.93;;;;;;;25.67;58.28;101368.06;5029764;28;20504;-65
2023/07/20 11:15:47;;;;;;;3.28;0.68;;;;;;;25.99;58.49;101366.00;5029684;28;20143;-65
2023/07/20 11:18:15;;;;;;;2.28;0.70;;;;;;;26.02;58.72;101372.88;5033478;28;20049;-64
2023/07/20 11:20:44;;;;;;;3.03;0.70;;;;;;;26.28;56.02;101372.34;5030043;28;20037;-64
2023/07/20 11:23:13;;;;;;;1.05;0.60;;;;;;;26.53;56.06;101366.56;5029520;28;20045;-65
2023/07/20 11:25:42;;;;;;;1.65;0.82;;;;;;;26.40;55.36;101365.41;5028297;28;20049;-64
2023/07/20 11:28:11;;;;;;;1.48;0.75;;;;;;;26.60;54.14;101359.38;5029093;28;20041;-64
2023/07/20 11:30:39;;;;;;;1.42;0.70;;;;;;;26.51;54.74;101357.84;5028267;28;20045;-65
2023/07/20 11:33:10;;;;;;;0.93;0.68;;;;;;;26.62;54.78;101354.63;5032339;28;20053;-64